2007 XAVIER (2006294S10168)


On this page: IBTrACS data - Map and Plots - Positions - Intensities - Original source data

Summary

Start Oct 20
End Oct 26
Basin SP
LMI 115 kt
Sources jtwc_sh
nadi
wellington
neumann
In WMO? Yes
Previous storm 2006 PAUL (EP)
Previous in basin 2006 MONICA (SP)
Concurrent storms 2006 PAUL (EP)
2007 XAVIER (SP)
2006 CIMARON (WP)
Next in basin Missing
Next storm 2006 CIMARON (WP)

top of page IBTrACS Data: File Access

No storm imagery available

top of page Plots:

Map of storm track will not appear if FTP is down
Time series of cyclone Maximum Sustained Wind will not appear if FTP is down
Time series of cyclone Minimum Central Pressure will not appear if FTP is down

top of page Track Data:Position

jtwc_sh nadi wellington neumann
Date Lat Lon Lat Lon Lat Lon Lat Lon
2006-10-20 12:00:00 -9.5 167.9 -9.5 167.9
2006-10-20 18:00:00 -9.6 168.0 -9.6 168.0
2006-10-21 00:00:00 -9.8 168.1 -9.8 167.6 -9.8 167.6 -9.8 168.1
2006-10-21 06:00:00 -10.0 168.1 -10.1 167.8 -10.1 167.8 -10.0 168.1
2006-10-21 12:00:00 -10.2 168.0 -10.3 167.8 -10.3 167.8 -10.2 168.0
2006-10-21 18:00:00 -10.5 167.9 -10.5 167.8 -10.5 167.8 -10.5 167.9
2006-10-22 00:00:00 -10.8 167.7 -10.8 167.7 -10.8 167.7 -10.8 167.7
2006-10-22 06:00:00 -10.9 167.4 -11.2 167.4 -11.2 167.4 -10.9 167.4
2006-10-22 12:00:00 -11.1 167.6 -10.8 167.2 -10.8 167.2 -11.1 167.6
2006-10-22 18:00:00 -11.3 167.8 -11.1 167.7 -11.1 167.7 -11.3 167.8
2006-10-23 00:00:00 -11.6 168.1 -11.6 168.0 -11.6 168.0 -11.6 168.1
2006-10-23 06:00:00 -12.0 168.3 -12.2 168.2 -12.2 168.2 -12.0 168.3
2006-10-23 12:00:00 -12.5 168.5 -12.4 168.4 -12.4 168.4 -12.5 168.5
2006-10-23 18:00:00 -12.8 168.7 -12.7 168.7 -12.7 168.7 -12.8 168.7
2006-10-24 00:00:00 -13.2 169.2 -13.1 169.0 -13.1 169.0 -13.2 169.2
2006-10-24 06:00:00 -13.7 169.7 -13.7 169.7 -13.7 169.7 -13.7 169.7
2006-10-24 12:00:00 -14.4 170.3 -14.3 170.3 -14.3 170.3 -14.4 170.3
2006-10-24 18:00:00 -15.1 171.1 -15.0 170.9 -15.0 170.9 -15.1 171.1
2006-10-25 00:00:00 -15.5 171.7 -15.4 171.3 -15.4 171.3 -15.5 171.7
2006-10-25 06:00:00 -15.7 171.7 -15.7 171.7 -15.7 171.7 -15.7 171.7
2006-10-25 12:00:00 -15.3 171.2 -16.0 171.1 -16.0 171.1 -15.3 171.2
2006-10-25 18:00:00 -15.0 170.8 -15.2 170.6 -15.2 170.6 -15.0 170.8
2006-10-26 00:00:00 -14.7 170.3 -14.7 170.3 -14.7 170.3 -14.7 170.3
2006-10-26 06:00:00 -14.2 169.9 -14.2 169.9

top of pageTrack Data:Intensity

jtwc_sh nadi wellington neumann
Date Wind Pres Wind Pres Wind Pres Wind Pres
2006-10-20 12:00:00 20. 1004. 20.
2006-10-20 18:00:00 25. 1002. 25.
2006-10-21 00:00:00 25. 1002. 15. 1004. 15. 1004. 25.
2006-10-21 06:00:00 25. 1002. 20. 1002. 20. 1002. 25.
2006-10-21 12:00:00 30. 1000. 30. 997. 30. 997. 30.
2006-10-21 18:00:00 30. 1000. 35. 995. 35. 995. 30.
2006-10-22 00:00:00 45. 991. 40. 990. 40. 990. 45.
2006-10-22 06:00:00 45. 991. 50. 985. 50. 985. 45.
2006-10-22 12:00:00 55. 984. 55. 980. 55. 980. 55.
2006-10-22 18:00:00 65. 976. 65. 970. 65. 970. 65.
2006-10-23 00:00:00 80. 963. 75. 960. 75. 960. 80.
2006-10-23 06:00:00 80. 963. 80. 955. 80. 955. 80.
2006-10-23 12:00:00 85. 958. 80. 950. 80. 950. 85.
2006-10-23 18:00:00 90. 954. 85. 945. 85. 945. 90.
2006-10-24 00:00:00 115. 927. 90. 935. 90. 935. 115.
2006-10-24 06:00:00 115. 927. 95. 930. 95. 930. 115.
2006-10-24 12:00:00 105. 938. 95. 930. 95. 930. 105.
2006-10-24 18:00:00 85. 958. 95. 930. 95. 930. 85.
2006-10-25 00:00:00 70. 972. 85. 945. 85. 945. 70.
2006-10-25 06:00:00 60. 980. 75. 960. 75. 960. 60.
2006-10-25 12:00:00 45. 991. 60. 975. 60. 975. 45.
2006-10-25 18:00:00 40. 994. 45. 987. 45. 987. 40.
2006-10-26 00:00:00 30. 1000. 30. 997. 30. 997. 30.
2006-10-26 06:00:00 25. 1002. 25.

top of page Links to source data

Source Source file Format
jtwc_sh bsh012007.txt ATCF
nadi RSMC-Nadi-2006-07-BT-Data.txt:Line=16:XAVIER Text table
wellington TC_BT_2006-2009.csv:Line=99:XAVIER Text table
neumann tracks.sh:Storm=1352:XAVIER:01S:BSH012007 HURDAT